sensor_id;sensor_type;location;lat;lon;timestamp;temperature;humidity
28763;DHT22;15918;51.270;6.522;2023-02-13T00:01:38;11.00;73.00
28763;DHT22;15918;51.270;6.522;2023-02-13T00:04:04;11.00;73.00
28763;DHT22;15918;51.270;6.522;2023-02-13T00:06:29;11.00;73.00
28763;DHT22;15918;51.270;6.522;2023-02-13T00:08:55;11.00;73.00
28763;DHT22;15918;51.270;6.522;2023-02-13T00:11:20;11.00;73.00
28763;DHT22;15918;51.270;6.522;2023-02-13T00:13:46;11.00;73.00
28763;DHT22;15918;51.270;6.522;2023-02-13T00:16:12;11.00;73.00
28763;DHT22;15918;51.270;6.522;2023-02-13T00:18:38;11.00;73.00
28763;DHT22;15918;51.270;6.522;2023-02-13T00:21:09;11.00;73.00
28763;DHT22;15918;51.270;6.522;2023-02-13T00:23:36;11.00;73.00
28763;DHT22;15918;51.270;6.522;2023-02-13T00:26:14;11.00;73.00
28763;DHT22;15918;51.270;6.522;2023-02-13T00:28:41;11.00;73.00
28763;DHT22;15918;51.270;6.522;2023-02-13T00:31:12;11.00;73.00
28763;DHT22;15918;51.270;6.522;2023-02-13T00:33:38;11.00;73.00
28763;DHT22;15918;51.270;6.522;2023-02-13T00:36:09;11.00;73.00
28763;DHT22;15918;51.270;6.522;2023-02-13T00:38:36;11.00;72.90
28763;DHT22;15918;51.270;6.522;2023-02-13T00:41:02;11.00;72.90
28763;DHT22;15918;51.270;6.522;2023-02-13T00:43:28;11.00;72.90
28763;DHT22;15918;51.270;6.522;2023-02-13T00:45:54;11.00;72.90
28763;DHT22;15918;51.270;6.522;2023-02-13T00:48:20;11.00;72.90
28763;DHT22;15918;51.270;6.522;2023-02-13T00:50:46;11.00;72.80
28763;DHT22;15918;51.270;6.522;2023-02-13T00:53:12;11.00;72.90
28763;DHT22;15918;51.270;6.522;2023-02-13T00:55:37;11.00;72.90
28763;DHT22;15918;51.270;6.522;2023-02-13T00:58:03;11.00;72.80
28763;DHT22;15918;51.270;6.522;2023-02-13T01:00:30;11.00;72.80
28763;DHT22;15918;51.270;6.522;2023-02-13T01:02:56;11.00;72.80
28763;DHT22;15918;51.270;6.522;2023-02-13T01:05:21;11.00;72.80
28763;DHT22;15918;51.270;6.522;2023-02-13T01:07:47;11.00;72.80
28763;DHT22;15918;51.270;6.522;2023-02-13T01:10:12;10.90;72.80
28763;DHT22;15918;51.270;6.522;2023-02-13T01:12:38;11.00;72.80
28763;DHT22;15918;51.270;6.522;2023-02-13T01:15:04;11.00;72.80
28763;DHT22;15918;51.270;6.522;2023-02-13T01:17:30;11.00;72.80
28763;DHT22;15918;51.270;6.522;2023-02-13T01:19:56;11.00;72.80
28763;DHT22;15918;51.270;6.522;2023-02-13T01:22:21;11.00;72.70
28763;DHT22;15918;51.270;6.522;2023-02-13T01:24:47;11.00;72.70
28763;DHT22;15918;51.270;6.522;2023-02-13T01:27:13;11.00;72.80
28763;DHT22;15918;51.270;6.522;2023-02-13T01:29:38;10.90;72.70
28763;DHT22;15918;51.270;6.522;2023-02-13T01:32:04;10.90;72.70
28763;DHT22;15918;51.270;6.522;2023-02-13T01:34:31;10.90;72.70
28763;DHT22;15918;51.270;6.522;2023-02-13T01:36:57;10.90;72.70
28763;DHT22;15918;51.270;6.522;2023-02-13T01:39:22;10.90;72.70
28763;DHT22;15918;51.270;6.522;2023-02-13T01:41:49;10.90;72.60
28763;DHT22;15918;51.270;6.522;2023-02-13T01:44:43;11.00;72.60
28763;DHT22;15918;51.270;6.522;2023-02-13T01:47:13;10.90;72.40
28763;DHT22;15918;51.270;6.522;2023-02-13T01:49:40;10.90;72.60
28763;DHT22;15918;51.270;6.522;2023-02-13T01:52:07;10.90;72.50
28763;DHT22;15918;51.270;6.522;2023-02-13T01:54:34;10.90;72.50
28763;DHT22;15918;51.270;6.522;2023-02-13T01:57:14;10.90;72.50
28763;DHT22;15918;51.270;6.522;2023-02-13T02:00:03;10.90;72.40
28763;DHT22;15918;51.270;6.522;2023-02-13T02:02:33;10.90;72.40
28763;DHT22;15918;51.270;6.522;2023-02-13T02:05:02;10.80;72.40
28763;DHT22;15918;51.270;6.522;2023-02-13T02:07:28;10.90;72.50
28763;DHT22;15918;51.270;6.522;2023-02-13T02:09:59;10.80;72.40
28763;DHT22;15918;51.270;6.522;2023-02-13T02:12:36;10.90;72.50
28763;DHT22;15918;51.270;6.522;2023-02-13T02:15:05;10.90;72.40
28763;DHT22;15918;51.270;6.522;2023-02-13T02:17:31;10.80;72.40
28763;DHT22;15918;51.270;6.522;2023-02-13T02:26:38;10.80;72.30
28763;DHT22;15918;51.270;6.522;2023-02-13T02:34:55;10.80;72.30
28763;DHT22;15918;51.270;6.522;2023-02-13T02:48:45;10.80;72.50
28763;DHT22;15918;51.270;6.522;2023-02-13T02:51:54;10.80;72.40
28763;DHT22;15918;51.270;6.522;2023-02-13T02:57:19;10.70;72.40
28763;DHT22;15918;51.270;6.522;2023-02-13T02:59:47;10.70;72.40
28763;DHT22;15918;51.270;6.522;2023-02-13T03:02:32;10.70;72.50
28763;DHT22;15918;51.270;6.522;2023-02-13T03:05:30;10.70;72.50
28763;DHT22;15918;51.270;6.522;2023-02-13T03:08:16;10.70;72.50
28763;DHT22;15918;51.270;6.522;2023-02-13T03:11:05;10.70;72.50
28763;DHT22;15918;51.270;6.522;2023-02-13T03:13:49;10.70;72.50
28763;DHT22;15918;51.270;6.522;2023-02-13T03:16:20;10.70;72.50
28763;DHT22;15918;51.270;6.522;2023-02-13T03:19:12;10.70;72.50
28763;DHT22;15918;51.270;6.522;2023-02-13T03:22:07;10.70;72.50
28763;DHT22;15918;51.270;6.522;2023-02-13T03:33:29;10.60;72.50
28763;DHT22;15918;51.270;6.522;2023-02-13T03:36:21;10.60;72.50
28763;DHT22;15918;51.270;6.522;2023-02-13T03:39:17;10.60;72.50
28763;DHT22;15918;51.270;6.522;2023-02-13T03:41:58;10.60;72.60
28763;DHT22;15918;51.270;6.522;2023-02-13T03:44:35;10.60;72.50
28763;DHT22;15918;51.270;6.522;2023-02-13T03:47:04;10.60;72.50
28763;DHT22;15918;51.270;6.522;2023-02-13T03:49:36;10.60;72.50
28763;DHT22;15918;51.270;6.522;2023-02-13T03:52:28;10.60;72.40
28763;DHT22;15918;51.270;6.522;2023-02-13T03:54:59;10.60;72.50
28763;DHT22;15918;51.270;6.522;2023-02-13T03:57:46;10.60;72.50
28763;DHT22;15918;51.270;6.522;2023-02-13T04:00:45;10.60;72.50
28763;DHT22;15918;51.270;6.522;2023-02-13T04:03:21;10.60;72.50
28763;DHT22;15918;51.270;6.522;2023-02-13T04:05:53;10.60;72.50
28763;DHT22;15918;51.270;6.522;2023-02-13T04:08:20;10.60;72.50
28763;DHT22;15918;51.270;6.522;2023-02-13T04:10:58;10.60;72.50
28763;DHT22;15918;51.270;6.522;2023-02-13T04:13:38;10.60;72.50
28763;DHT22;15918;51.270;6.522;2023-02-13T04:16:15;10.60;72.60
28763;DHT22;15918;51.270;6.522;2023-02-13T04:18:42;10.60;72.40
28763;DHT22;15918;51.270;6.522;2023-02-13T04:21:08;10.60;72.50
28763;DHT22;15918;51.270;6.522;2023-02-13T04:23:34;10.60;72.50
28763;DHT22;15918;51.270;6.522;2023-02-13T04:26:03;10.60;72.40
28763;DHT22;15918;51.270;6.522;2023-02-13T04:28:30;10.60;72.40
28763;DHT22;15918;51.270;6.522;2023-02-13T04:30:56;10.60;72.40
28763;DHT22;15918;51.270;6.522;2023-02-13T04:33:22;10.60;72.40
28763;DHT22;15918;51.270;6.522;2023-02-13T04:35:48;10.60;72.30
28763;DHT22;15918;51.270;6.522;2023-02-13T04:38:13;10.60;72.30
28763;DHT22;15918;51.270;6.522;2023-02-13T04:40:39;10.50;72.20
28763;DHT22;15918;51.270;6.522;2023-02-13T04:43:05;10.60;72.20
28763;DHT22;15918;51.270;6.522;2023-02-13T04:45:30;10.50;72.10
28763;DHT22;15918;51.270;6.522;2023-02-13T04:47:56;10.60;72.20
28763;DHT22;15918;51.270;6.522;2023-02-13T04:50:23;10.50;72.10
28763;DHT22;15918;51.270;6.522;2023-02-13T04:52:53;10.50;72.10
28763;DHT22;15918;51.270;6.522;2023-02-13T04:55:20;10.60;72.00
28763;DHT22;15918;51.270;6.522;2023-02-13T04:57:45;10.50;71.90
28763;DHT22;15918;51.270;6.522;2023-02-13T05:00:12;10.50;71.90
28763;DHT22;15918;51.270;6.522;2023-02-13T05:02:38;10.50;71.80
28763;DHT22;15918;51.270;6.522;2023-02-13T05:05:04;10.50;71.70
28763;DHT22;15918;51.270;6.522;2023-02-13T05:07:30;10.50;71.70
28763;DHT22;15918;51.270;6.522;2023-02-13T05:09:55;10.50;71.70
28763;DHT22;15918;51.270;6.522;2023-02-13T05:12:21;10.50;71.60
28763;DHT22;15918;51.270;6.522;2023-02-13T05:14:46;10.50;71.60
28763;DHT22;15918;51.270;6.522;2023-02-13T05:17:12;10.50;71.60
28763;DHT22;15918;51.270;6.522;2023-02-13T05:19:37;10.50;71.50
28763;DHT22;15918;51.270;6.522;2023-02-13T05:22:03;10.50;71.50
28763;DHT22;15918;51.270;6.522;2023-02-13T05:24:47;10.50;71.50
28763;DHT22;15918;51.270;6.522;2023-02-13T05:27:13;10.50;71.40
28763;DHT22;15918;51.270;6.522;2023-02-13T05:29:38;10.50;71.40
28763;DHT22;15918;51.270;6.522;2023-02-13T05:32:04;10.50;71.40
28763;DHT22;15918;51.270;6.522;2023-02-13T05:34:29;10.50;71.30
28763;DHT22;15918;51.270;6.522;2023-02-13T05:36:55;10.40;71.20
28763;DHT22;15918;51.270;6.522;2023-02-13T05:39:21;10.50;71.20
28763;DHT22;15918;51.270;6.522;2023-02-13T05:41:47;10.40;71.10
28763;DHT22;15918;51.270;6.522;2023-02-13T05:44:14;10.50;71.20
28763;DHT22;15918;51.270;6.522;2023-02-13T05:46:40;10.40;71.10
28763;DHT22;15918;51.270;6.522;2023-02-13T05:49:07;10.40;71.10
28763;DHT22;15918;51.270;6.522;2023-02-13T05:51:34;10.40;71.10
28763;DHT22;15918;51.270;6.522;2023-02-13T05:53:59;10.40;71.10
28763;DHT22;15918;51.270;6.522;2023-02-13T05:56:25;10.40;71.10
28763;DHT22;15918;51.270;6.522;2023-02-13T05:58:52;10.40;71.10
28763;DHT22;15918;51.270;6.522;2023-02-13T06:01:18;10.40;71.10
28763;DHT22;15918;51.270;6.522;2023-02-13T06:03:44;10.40;71.10
28763;DHT22;15918;51.270;6.522;2023-02-13T06:06:09;10.30;71.00
28763;DHT22;15918;51.270;6.522;2023-02-13T06:08:35;10.30;71.00
28763;DHT22;15918;51.270;6.522;2023-02-13T06:11:00;10.30;71.00
28763;DHT22;15918;51.270;6.522;2023-02-13T06:13:26;10.40;71.10
28763;DHT22;15918;51.270;6.522;2023-02-13T06:15:52;10.30;71.10
28763;DHT22;15918;51.270;6.522;2023-02-13T06:18:18;10.30;71.20
28763;DHT22;15918;51.270;6.522;2023-02-13T06:20:43;10.30;71.10
28763;DHT22;15918;51.270;6.522;2023-02-13T06:23:09;10.30;71.10
28763;DHT22;15918;51.270;6.522;2023-02-13T06:25:35;10.30;71.20
28763;DHT22;15918;51.270;6.522;2023-02-13T06:28:01;10.30;71.20
28763;DHT22;15918;51.270;6.522;2023-02-13T06:30:27;10.30;71.20
28763;DHT22;15918;51.270;6.522;2023-02-13T06:32:52;10.30;71.20
28763;DHT22;15918;51.270;6.522;2023-02-13T06:35:18;10.30;71.20
28763;DHT22;15918;51.270;6.522;2023-02-13T06:37:43;10.30;71.20
28763;DHT22;15918;51.270;6.522;2023-02-13T06:40:10;10.20;71.10
28763;DHT22;15918;51.270;6.522;2023-02-13T06:42:35;10.20;71.10
28763;DHT22;15918;51.270;6.522;2023-02-13T06:45:01;10.20;71.00
28763;DHT22;15918;51.270;6.522;2023-02-13T06:47:27;10.30;71.10
28763;DHT22;15918;51.270;6.522;2023-02-13T06:49:52;10.20;71.00
28763;DHT22;15918;51.270;6.522;2023-02-13T06:52:18;10.20;71.00
28763;DHT22;15918;51.270;6.522;2023-02-13T06:54:44;10.20;71.00
28763;DHT22;15918;51.270;6.522;2023-02-13T06:57:09;10.20;71.10
28763;DHT22;15918;51.270;6.522;2023-02-13T06:59:35;10.20;71.00
28763;DHT22;15918;51.270;6.522;2023-02-13T07:02:00;10.20;71.00
28763;DHT22;15918;51.270;6.522;2023-02-13T07:04:26;10.20;71.00
28763;DHT22;15918;51.270;6.522;2023-02-13T07:06:54;10.20;71.10
28763;DHT22;15918;51.270;6.522;2023-02-13T07:09:20;10.20;71.10
28763;DHT22;15918;51.270;6.522;2023-02-13T07:11:45;10.20;71.10
28763;DHT22;15918;51.270;6.522;2023-02-13T07:14:11;10.20;71.20
28763;DHT22;15918;51.270;6.522;2023-02-13T07:16:36;10.20;71.20
28763;DHT22;15918;51.270;6.522;2023-02-13T07:19:02;10.10;71.10
28763;DHT22;15918;51.270;6.522;2023-02-13T07:21:27;10.20;71.20
28763;DHT22;15918;51.270;6.522;2023-02-13T07:23:53;10.10;71.20
28763;DHT22;15918;51.270;6.522;2023-02-13T07:26:19;10.10;72.00
28763;DHT22;15918;51.270;6.522;2023-02-13T07:28:44;10.10;71.20
28763;DHT22;15918;51.270;6.522;2023-02-13T07:31:10;10.10;71.20
28763;DHT22;15918;51.270;6.522;2023-02-13T07:33:36;10.10;71.20
28763;DHT22;15918;51.270;6.522;2023-02-13T07:36:02;10.10;71.20
28763;DHT22;15918;51.270;6.522;2023-02-13T07:38:32;10.10;71.30
28763;DHT22;15918;51.270;6.522;2023-02-13T07:41:02;10.10;71.30
28763;DHT22;15918;51.270;6.522;2023-02-13T07:43:28;10.10;71.30
28763;DHT22;15918;51.270;6.522;2023-02-13T07:45:57;10.10;71.40
28763;DHT22;15918;51.270;6.522;2023-02-13T07:48:23;10.10;71.40
28763;DHT22;15918;51.270;6.522;2023-02-13T07:50:51;10.10;71.40
28763;DHT22;15918;51.270;6.522;2023-02-13T07:53:17;10.10;71.50
28763;DHT22;15918;51.270;6.522;2023-02-13T07:55:43;10.10;71.40
28763;DHT22;15918;51.270;6.522;2023-02-13T07:58:08;10.10;71.50
28763;DHT22;15918;51.270;6.522;2023-02-13T08:00:34;10.10;71.50
28763;DHT22;15918;51.270;6.522;2023-02-13T08:03:00;10.10;71.50
28763;DHT22;15918;51.270;6.522;2023-02-13T08:05:26;10.10;71.60
28763;DHT22;15918;51.270;6.522;2023-02-13T08:07:52;10.10;72.40
28763;DHT22;15918;51.270;6.522;2023-02-13T08:10:18;10.10;71.60
28763;DHT22;15918;51.270;6.522;2023-02-13T08:13:03;10.10;71.70
28763;DHT22;15918;51.270;6.522;2023-02-13T08:15:29;10.10;71.70
28763;DHT22;15918;51.270;6.522;2023-02-13T08:17:54;10.20;71.80
28763;DHT22;15918;51.270;6.522;2023-02-13T08:20:20;10.20;71.80
28763;DHT22;15918;51.270;6.522;2023-02-13T08:22:46;10.20;71.90
28763;DHT22;15918;51.270;6.522;2023-02-13T08:25:11;10.20;71.90
28763;DHT22;15918;51.270;6.522;2023-02-13T08:27:37;10.20;71.90
28763;DHT22;15918;51.270;6.522;2023-02-13T08:30:04;10.20;71.90
28763;DHT22;15918;51.270;6.522;2023-02-13T08:32:30;10.20;71.90
28763;DHT22;15918;51.270;6.522;2023-02-13T08:34:56;10.20;72.00
28763;DHT22;15918;51.270;6.522;2023-02-13T08:37:22;10.20;72.00
28763;DHT22;15918;51.270;6.522;2023-02-13T08:39:47;10.20;72.00
28763;DHT22;15918;51.270;6.522;2023-02-13T08:42:13;10.30;72.10
28763;DHT22;15918;51.270;6.522;2023-02-13T08:44:39;10.20;72.10
28763;DHT22;15918;51.270;6.522;2023-02-13T08:47:07;10.30;72.20
28763;DHT22;15918;51.270;6.522;2023-02-13T08:49:33;10.30;72.20
28763;DHT22;15918;51.270;6.522;2023-02-13T08:51:59;10.30;72.20
28763;DHT22;15918;51.270;6.522;2023-02-13T08:54:25;10.30;72.20
28763;DHT22;15918;51.270;6.522;2023-02-13T08:56:52;10.30;72.20
28763;DHT22;15918;51.270;6.522;2023-02-13T08:59:18;10.30;72.20
28763;DHT22;15918;51.270;6.522;2023-02-13T09:01:44;10.30;72.20
28763;DHT22;15918;51.270;6.522;2023-02-13T09:04:09;10.40;72.30
28763;DHT22;15918;51.270;6.522;2023-02-13T09:06:35;10.40;72.30
28763;DHT22;15918;51.270;6.522;2023-02-13T09:09:03;10.40;72.30
28763;DHT22;15918;51.270;6.522;2023-02-13T09:11:29;10.40;72.30
28763;DHT22;15918;51.270;6.522;2023-02-13T09:13:54;10.40;72.30
28763;DHT22;15918;51.270;6.522;2023-02-13T09:16:20;10.40;72.30
28763;DHT22;15918;51.270;6.522;2023-02-13T09:18:47;10.50;72.40
28763;DHT22;15918;51.270;6.522;2023-02-13T09:21:13;10.50;72.40
28763;DHT22;15918;51.270;6.522;2023-02-13T09:23:39;10.50;72.40
28763;DHT22;15918;51.270;6.522;2023-02-13T09:26:07;10.50;72.40
28763;DHT22;15918;51.270;6.522;2023-02-13T09:28:34;10.50;72.40
28763;DHT22;15918;51.270;6.522;2023-02-13T09:31:08;10.60;72.40
28763;DHT22;15918;51.270;6.522;2023-02-13T09:33:34;10.60;72.40
28763;DHT22;15918;51.270;6.522;2023-02-13T09:36:11;10.60;72.30
28763;DHT22;15918;51.270;6.522;2023-02-13T09:38:39;10.70;72.40
28763;DHT22;15918;51.270;6.522;2023-02-13T09:41:17;10.70;72.40
28763;DHT22;15918;51.270;6.522;2023-02-13T09:46:45;10.70;72.30
28763;DHT22;15918;51.270;6.522;2023-02-13T09:49:17;10.80;72.40
28763;DHT22;15918;51.270;6.522;2023-02-13T09:51:48;10.80;72.40
28763;DHT22;15918;51.270;6.522;2023-02-13T09:54:15;10.80;72.40
28763;DHT22;15918;51.270;6.522;2023-02-13T09:59:44;10.80;72.30
28763;DHT22;15918;51.270;6.522;2023-02-13T10:02:36;10.90;72.30
28763;DHT22;15918;51.270;6.522;2023-02-13T10:13:28;11.00;72.40
28763;DHT22;15918;51.270;6.522;2023-02-13T10:16:01;11.00;72.30
28763;DHT22;15918;51.270;6.522;2023-02-13T10:18:46;11.10;72.30
28763;DHT22;15918;51.270;6.522;2023-02-13T10:21:14;11.00;72.20
28763;DHT22;15918;51.270;6.522;2023-02-13T10:23:47;11.00;72.10
28763;DHT22;15918;51.270;6.522;2023-02-13T10:26:26;11.10;72.00
28763;DHT22;15918;51.270;6.522;2023-02-13T10:29:12;11.10;71.70
28763;DHT22;15918;51.270;6.522;2023-02-13T10:32:00;11.20;71.80
28763;DHT22;15918;51.270;6.522;2023-02-13T10:34:31;11.20;71.90
28763;DHT22;15918;51.270;6.522;2023-02-13T10:36:59;11.20;71.90
28763;DHT22;15918;51.270;6.522;2023-02-13T10:39:29;11.20;71.90
28763;DHT22;15918;51.270;6.522;2023-02-13T10:42:19;11.30;71.70
28763;DHT22;15918;51.270;6.522;2023-02-13T10:51:10;11.30;71.40
28763;DHT22;15918;51.270;6.522;2023-02-13T10:54:13;11.30;71.50
28763;DHT22;15918;51.270;6.522;2023-02-13T10:56:54;11.30;71.30
28763;DHT22;15918;51.270;6.522;2023-02-13T11:01:56;11.40;71.50
28763;DHT22;15918;51.270;6.522;2023-02-13T11:04:24;11.50;71.60
28763;DHT22;15918;51.270;6.522;2023-02-13T11:06:54;11.50;71.60
28763;DHT22;15918;51.270;6.522;2023-02-13T11:09:21;11.50;71.50
28763;DHT22;15918;51.270;6.522;2023-02-13T11:11:46;11.50;71.40
28763;DHT22;15918;51.270;6.522;2023-02-13T11:14:15;11.60;71.50
28763;DHT22;15918;51.270;6.522;2023-02-13T11:16:54;11.60;71.50
28763;DHT22;15918;51.270;6.522;2023-02-13T11:20:03;11.60;71.20
28763;DHT22;15918;51.270;6.522;2023-02-13T11:22:32;11.60;71.10
28763;DHT22;15918;51.270;6.522;2023-02-13T11:27:34;11.70;71.20
28763;DHT22;15918;51.270;6.522;2023-02-13T11:30:04;11.70;71.30
28763;DHT22;15918;51.270;6.522;2023-02-13T11:32:31;11.80;71.40
28763;DHT22;15918;51.270;6.522;2023-02-13T11:37:43;11.80;71.40
28763;DHT22;15918;51.270;6.522;2023-02-13T11:40:30;11.80;71.40
28763;DHT22;15918;51.270;6.522;2023-02-13T11:42:56;11.90;71.60
28763;DHT22;15918;51.270;6.522;2023-02-13T11:45:23;11.90;71.50
28763;DHT22;15918;51.270;6.522;2023-02-13T11:47:50;11.90;71.40
28763;DHT22;15918;51.270;6.522;2023-02-13T11:50:31;11.90;71.30
28763;DHT22;15918;51.270;6.522;2023-02-13T11:53:03;12.00;71.50
28763;DHT22;15918;51.270;6.522;2023-02-13T11:55:35;12.00;72.20
28763;DHT22;15918;51.270;6.522;2023-02-13T12:00:40;12.00;71.10
28763;DHT22;15918;51.270;6.522;2023-02-13T12:08:38;12.10;71.40
28763;DHT22;15918;51.270;6.522;2023-02-13T12:11:35;12.10;71.50
28763;DHT22;15918;51.270;6.522;2023-02-13T12:14:01;12.20;71.30
28763;DHT22;15918;51.270;6.522;2023-02-13T12:16:39;12.20;71.30
28763;DHT22;15918;51.270;6.522;2023-02-13T12:19:10;12.20;71.20
28763;DHT22;15918;51.270;6.522;2023-02-13T12:25:03;12.20;71.40
28763;DHT22;15918;51.270;6.522;2023-02-13T12:41:19;12.40;71.20
28763;DHT22;15918;51.270;6.522;2023-02-13T12:44:00;12.40;71.30
28763;DHT22;15918;51.270;6.522;2023-02-13T12:46:29;12.40;71.40
28763;DHT22;15918;51.270;6.522;2023-02-13T12:49:26;12.40;71.60
28763;DHT22;15918;51.270;6.522;2023-02-13T13:03:20;12.60;71.60
28763;DHT22;15918;51.270;6.522;2023-02-13T13:14:18;12.60;71.40
28763;DHT22;15918;51.270;6.522;2023-02-13T13:20:19;12.70;71.50
28763;DHT22;15918;51.270;6.522;2023-02-13T13:25:09;12.70;71.40
28763;DHT22;15918;51.270;6.522;2023-02-13T13:27:41;12.70;71.60
28763;DHT22;15918;51.270;6.522;2023-02-13T13:32:58;12.70;71.40
28763;DHT22;15918;51.270;6.522;2023-02-13T13:35:25;12.80;71.60
28763;DHT22;15918;51.270;6.522;2023-02-13T13:38:36;12.80;71.50
28763;DHT22;15918;51.270;6.522;2023-02-13T13:41:00;12.80;71.30
28763;DHT22;15918;51.270;6.522;2023-02-13T13:49:25;12.80;71.30
28763;DHT22;15918;51.270;6.522;2023-02-13T13:51:51;12.80;71.30
28763;DHT22;15918;51.270;6.522;2023-02-13T13:54:21;12.80;71.50
28763;DHT22;15918;51.270;6.522;2023-02-13T14:05:00;12.90;71.20
28763;DHT22;15918;51.270;6.522;2023-02-13T14:07:33;12.90;71.00
28763;DHT22;15918;51.270;6.522;2023-02-13T14:10:00;12.90;70.90
28763;DHT22;15918;51.270;6.522;2023-02-13T14:14:55;13.00;71.10
28763;DHT22;15918;51.270;6.522;2023-02-13T14:22:53;13.00;71.00
28763;DHT22;15918;51.270;6.522;2023-02-13T14:25:25;13.00;71.10
28763;DHT22;15918;51.270;6.522;2023-02-13T14:27:57;13.00;71.10
28763;DHT22;15918;51.270;6.522;2023-02-13T14:30:33;13.00;71.20
28763;DHT22;15918;51.270;6.522;2023-02-13T14:33:05;13.00;71.30
28763;DHT22;15918;51.270;6.522;2023-02-13T14:35:34;13.00;71.30
28763;DHT22;15918;51.270;6.522;2023-02-13T14:38:03;13.00;71.20
28763;DHT22;15918;51.270;6.522;2023-02-13T14:40:41;13.00;71.10
28763;DHT22;15918;51.270;6.522;2023-02-13T14:46:03;13.10;70.80
28763;DHT22;15918;51.270;6.522;2023-02-13T14:48:41;13.00;70.80
28763;DHT22;15918;51.270;6.522;2023-02-13T14:51:16;13.00;70.80
28763;DHT22;15918;51.270;6.522;2023-02-13T14:53:52;13.10;70.80
28763;DHT22;15918;51.270;6.522;2023-02-13T14:56:20;13.10;70.60
28763;DHT22;15918;51.270;6.522;2023-02-13T14:59:14;13.10;70.50
28763;DHT22;15918;51.270;6.522;2023-02-13T15:02:12;13.10;70.10
28763;DHT22;15918;51.270;6.522;2023-02-13T15:04:45;13.10;70.20
28763;DHT22;15918;51.270;6.522;2023-02-13T15:07:18;13.10;70.40
28763;DHT22;15918;51.270;6.522;2023-02-13T15:09:59;13.10;70.40
28763;DHT22;15918;51.270;6.522;2023-02-13T15:12:36;13.10;70.30
28763;DHT22;15918;51.270;6.522;2023-02-13T15:15:26;13.10;70.20
28763;DHT22;15918;51.270;6.522;2023-02-13T15:17:59;13.10;70.10
28763;DHT22;15918;51.270;6.522;2023-02-13T15:20:28;13.10;70.30
28763;DHT22;15918;51.270;6.522;2023-02-13T15:22:55;13.10;70.40
28763;DHT22;15918;51.270;6.522;2023-02-13T15:25:33;13.10;70.30
28763;DHT22;15918;51.270;6.522;2023-02-13T15:28:02;13.10;70.10
28763;DHT22;15918;51.270;6.522;2023-02-13T15:30:31;13.10;70.10
28763;DHT22;15918;51.270;6.522;2023-02-13T15:33:02;13.10;69.90
28763;DHT22;15918;51.270;6.522;2023-02-13T15:35:33;13.10;69.80
28763;DHT22;15918;51.270;6.522;2023-02-13T15:38:37;13.10;69.80
28763;DHT22;15918;51.270;6.522;2023-02-13T15:41:07;13.10;69.60
28763;DHT22;15918;51.270;6.522;2023-02-13T15:43:42;13.10;69.80
28763;DHT22;15918;51.270;6.522;2023-02-13T15:46:18;13.10;69.80
28763;DHT22;15918;51.270;6.522;2023-02-13T15:48:45;13.10;69.80
28763;DHT22;15918;51.270;6.522;2023-02-13T15:51:19;13.10;69.70
28763;DHT22;15918;51.270;6.522;2023-02-13T15:53:51;13.10;70.50
28763;DHT22;15918;51.270;6.522;2023-02-13T15:56:17;13.10;69.70
28763;DHT22;15918;51.270;6.522;2023-02-13T15:58:43;13.10;69.80
28763;DHT22;15918;51.270;6.522;2023-02-13T16:01:09;13.10;69.80
28763;DHT22;15918;51.270;6.522;2023-02-13T16:03:35;13.10;69.70
28763;DHT22;15918;51.270;6.522;2023-02-13T16:06:04;13.10;69.70
28763;DHT22;15918;51.270;6.522;2023-02-13T16:08:32;13.00;69.70
28763;DHT22;15918;51.270;6.522;2023-02-13T16:16:20;13.00;69.80
28763;DHT22;15918;51.270;6.522;2023-02-13T16:18:48;13.00;69.90
28763;DHT22;15918;51.270;6.522;2023-02-13T16:21:14;13.00;70.00
28763;DHT22;15918;51.270;6.522;2023-02-13T16:23:43;13.00;70.10
28763;DHT22;15918;51.270;6.522;2023-02-13T16:26:12;13.00;70.20
28763;DHT22;15918;51.270;6.522;2023-02-13T16:28:39;13.00;70.30
28763;DHT22;15918;51.270;6.522;2023-02-13T16:31:05;13.00;70.40
28763;DHT22;15918;51.270;6.522;2023-02-13T16:33:36;12.90;70.40
28763;DHT22;15918;51.270;6.522;2023-02-13T16:38:43;12.90;70.40
28763;DHT22;15918;51.270;6.522;2023-02-13T16:51:45;12.80;70.20
28763;DHT22;15918;51.270;6.522;2023-02-13T16:54:16;12.90;70.20
28763;DHT22;15918;51.270;6.522;2023-02-13T16:59:33;12.80;70.10
28763;DHT22;15918;51.270;6.522;2023-02-13T17:04:49;12.80;69.90
28763;DHT22;15918;51.270;6.522;2023-02-13T17:07:24;12.70;69.80
28763;DHT22;15918;51.270;6.522;2023-02-13T17:09:59;12.70;69.70
28763;DHT22;15918;51.270;6.522;2023-02-13T17:12:27;12.70;69.60
28763;DHT22;15918;51.270;6.522;2023-02-13T17:14:54;12.70;69.50
28763;DHT22;15918;51.270;6.522;2023-02-13T17:17:22;12.70;69.40
28763;DHT22;15918;51.270;6.522;2023-02-13T17:19:48;12.70;69.30
28763;DHT22;15918;51.270;6.522;2023-02-13T17:24:51;12.70;69.00
28763;DHT22;15918;51.270;6.522;2023-02-13T17:27:16;12.60;68.90
28763;DHT22;15918;51.270;6.522;2023-02-13T17:29:42;12.60;68.70
28763;DHT22;15918;51.270;6.522;2023-02-13T17:32:13;12.60;68.60
28763;DHT22;15918;51.270;6.522;2023-02-13T17:34:40;12.60;68.40
28763;DHT22;15918;51.270;6.522;2023-02-13T17:39:46;12.60;68.20
28763;DHT22;15918;51.270;6.522;2023-02-13T17:42:16;12.50;68.10
28763;DHT22;15918;51.270;6.522;2023-02-13T17:44:42;12.50;67.90
28763;DHT22;15918;51.270;6.522;2023-02-13T17:47:08;12.50;67.90
28763;DHT22;15918;51.270;6.522;2023-02-13T17:49:34;12.50;67.70
28763;DHT22;15918;51.270;6.522;2023-02-13T17:51:59;12.50;67.70
28763;DHT22;15918;51.270;6.522;2023-02-13T17:54:25;12.50;67.60
28763;DHT22;15918;51.270;6.522;2023-02-13T17:56:51;12.50;67.50
28763;DHT22;15918;51.270;6.522;2023-02-13T17:59:17;12.50;67.40
28763;DHT22;15918;51.270;6.522;2023-02-13T18:01:42;12.40;67.20
28763;DHT22;15918;51.270;6.522;2023-02-13T18:04:08;12.40;67.10
28763;DHT22;15918;51.270;6.522;2023-02-13T18:06:33;12.40;67.00
28763;DHT22;15918;51.270;6.522;2023-02-13T18:08:59;12.40;66.90
28763;DHT22;15918;51.270;6.522;2023-02-13T18:11:24;12.30;66.80
28763;DHT22;15918;51.270;6.522;2023-02-13T18:13:50;12.40;66.80
28763;DHT22;15918;51.270;6.522;2023-02-13T18:16:16;12.40;66.60
28763;DHT22;15918;51.270;6.522;2023-02-13T18:18:42;12.30;66.50
28763;DHT22;15918;51.270;6.522;2023-02-13T18:21:07;12.30;66.40
28763;DHT22;15918;51.270;6.522;2023-02-13T18:23:33;12.30;66.30
28763;DHT22;15918;51.270;6.522;2023-02-13T18:26:09;12.30;66.30
28763;DHT22;15918;51.270;6.522;2023-02-13T18:28:35;12.30;66.10
28763;DHT22;15918;51.270;6.522;2023-02-13T18:31:02;12.20;66.20
28763;DHT22;15918;51.270;6.522;2023-02-13T18:33:28;12.20;66.20
28763;DHT22;15918;51.270;6.522;2023-02-13T18:35:58;12.20;66.00
28763;DHT22;15918;51.270;6.522;2023-02-13T18:38:24;12.20;66.00
28763;DHT22;15918;51.270;6.522;2023-02-13T18:40:50;12.10;66.00